Time;durP1;ratioP1;P1;durP2;ratioP2;P2;SDS_P1;SDS_P2;PMS_P1;PMS_P2;Temp;Humidity;BMP_temperature;BMP_pressure;BME280_temperature;BME280_humidity;BME280_pressure;Samples;Min_cycle;Max_cycle;Signal;HPM_P1;HPM_P2
2022/01/14 00:02:11;;;;;;;64.97;34.95;;;;;;;-4.82;100.00;100762.77;1704710;83;21116;-86
2022/01/14 00:04:39;;;;;;;70.15;38.17;;;;;;;-4.82;100.00;100754.70;1703801;84;21041;-86
2022/01/14 00:07:07;;;;;;;71.75;38.17;;;;;;;-4.78;100.00;100748.75;1680576;84;21152;-87
2022/01/14 00:09:38;;;;;;;70.05;38.02;;;;;;;-4.75;100.00;100752.95;1704552;83;21072;-87
2022/01/14 00:12:14;;;;;;;77.05;41.13;;;;;;;-4.73;100.00;100747.84;1704752;83;21153;-87
2022/01/14 00:17:13;;;;;;;69.87;37.30;;;;;;;-4.71;100.00;100722.00;1704828;83;21096;-87
2022/01/14 00:19:43;;;;;;;67.53;36.80;;;;;;;-4.69;100.00;100724.11;1681223;83;21025;-86
2022/01/14 00:22:15;;;;;;;71.83;41.47;;;;;;;-4.67;100.00;100724.91;1704936;83;21519;-87
2022/01/14 00:35:29;;;;;;;66.25;36.08;;;;;;;-4.63;100.00;100686.73;1662846;84;21102;-85
2022/01/14 00:37:57;;;;;;;66.82;35.35;;;;;;;-4.60;100.00;100688.40;1688022;84;22435;-84
2022/01/14 00:40:25;;;;;;;65.52;35.30;;;;;;;-4.58;100.00;100687.96;1687924;84;21129;-85
2022/01/14 00:42:52;;;;;;;68.85;38.75;;;;;;;-4.57;100.00;100696.00;1688273;84;21000;-86
2022/01/14 00:45:21;;;;;;;70.03;36.42;;;;;;;-4.55;100.00;100693.02;1688152;84;21563;-84
2022/01/14 00:47:49;;;;;;;56.92;31.50;;;;;;;-4.52;100.00;100688.33;1688883;84;21086;-85
2022/01/14 00:50:19;;;;;;;55.43;31.35;;;;;;;-4.50;100.00;100697.61;1688576;84;21841;-85
2022/01/14 00:52:47;;;;;;;57.55;30.92;;;;;;;-4.46;100.00;100700.96;1688922;84;21079;-85
2022/01/14 00:55:25;;;;;;;51.83;27.77;;;;;;;-4.46;100.00;100700.55;1659063;86;21074;-85
2022/01/14 01:00:27;;;;;;;50.40;29.32;;;;;;;-4.39;100.00;100696.66;1725924;83;21434;-85
2022/01/14 01:02:54;;;;;;;51.60;28.52;;;;;;;-4.37;100.00;100699.59;1690175;84;21154;-85
2022/01/14 01:05:22;;;;;;;50.23;27.95;;;;;;;-4.33;100.00;100701.66;1720596;83;21092;-86
2022/01/14 01:08:09;;;;;;;51.55;26.93;;;;;;;-4.30;100.00;100695.28;1725628;83;21002;-85
2022/01/14 01:10:34;;;;;;;50.65;28.67;;;;;;;-4.28;100.00;100692.27;1717096;83;21076;-85
2022/01/14 01:13:11;;;;;;;50.98;28.83;;;;;;;-4.25;100.00;100690.97;1725464;83;21041;-85
2022/01/14 01:15:33;;;;;;;52.08;29.35;;;;;;;-4.24;100.00;100679.94;1697505;83;21180;-85
2022/01/14 01:18:01;;;;;;;56.65;29.90;;;;;;;-4.21;100.00;100672.28;1696927;83;21041;-85
2022/01/14 01:20:28;;;;;;;45.95;25.77;;;;;;;-4.18;100.00;100664.59;1690306;84;21081;-84
2022/01/14 01:22:57;;;;;;;49.95;30.40;;;;;;;-4.15;100.00;100651.84;1722436;82;21021;-85
2022/01/14 01:25:29;;;;;;;46.20;28.32;;;;;;;-4.12;100.00;100646.70;1718670;83;21559;-84
2022/01/14 01:27:55;;;;;;;52.23;30.32;;;;;;;-4.07;100.00;100647.08;1680706;84;21163;-84
2022/01/14 01:33:02;;;;;;;47.27;26.87;;;;;;;-4.02;100.00;100637.25;1753092;81;21562;-86
2022/01/14 01:35:29;;;;;;;45.80;27.80;;;;;;;-3.98;100.00;100619.80;1751993;81;21057;-85
2022/01/14 01:37:56;;;;;;;50.60;29.18;;;;;;;-3.96;100.00;100612.98;1753924;81;21034;-86
2022/01/14 01:40:25;;;;;;;45.55;26.85;;;;;;;-3.93;100.00;100605.73;1755811;81;21144;-86
2022/01/14 01:42:56;;;;;;;46.33;29.48;;;;;;;-3.91;100.00;100592.56;1749851;82;21041;-87
2022/01/14 01:45:26;;;;;;;46.83;28.25;;;;;;;-3.89;100.00;100588.72;1755921;81;20969;-86
2022/01/14 01:47:54;;;;;;;46.58;27.70;;;;;;;-3.87;100.00;100582.73;1753587;81;21045;-87
2022/01/14 01:50:26;;;;;;;46.23;27.20;;;;;;;-3.85;100.00;100577.20;1755677;81;21045;-87
2022/01/14 01:52:54;;;;;;;48.15;28.40;;;;;;;-3.84;100.00;100578.02;1747044;81;21824;-86
2022/01/14 01:55:23;;;;;;;46.00;26.48;;;;;;;-3.82;100.00;100580.12;1678305;83;21847;-86
2022/01/14 01:57:52;;;;;;;46.10;28.40;;;;;;;-3.80;100.00;100575.41;1714776;81;21085;-85
2022/01/14 02:00:24;;;;;;;48.80;29.72;;;;;;;-3.80;100.00;100574.14;1723627;82;21025;-86
2022/01/14 02:02:54;;;;;;;50.17;29.80;;;;;;;-3.78;100.00;100574.55;1732186;81;21024;-86
2022/01/14 02:05:32;;;;;;;49.03;27.73;;;;;;;-3.75;100.00;100578.33;1746815;82;21839;-85
2022/01/14 02:08:05;;;;;;;48.80;28.12;;;;;;;-3.74;100.00;100568.11;1716381;82;21503;-86
2022/01/14 02:10:32;;;;;;;47.43;29.37;;;;;;;-3.72;100.00;100561.71;1695749;82;21089;-84
2022/01/14 02:13:01;;;;;;;50.88;29.80;;;;;;;-3.71;100.00;100555.34;1701861;82;21089;-85
2022/01/14 02:15:48;;;;;;;48.78;29.45;;;;;;;-3.67;100.00;100541.69;1734334;81;21069;-85
2022/01/14 02:18:32;;;;;;;47.35;28.87;;;;;;;-3.63;100.00;100536.11;1712050;82;22550;-85
2022/01/14 02:23:52;;;;;;;46.13;25.92;;;;;;;-3.59;100.00;100527.98;1732238;82;20969;-85
2022/01/14 02:26:19;;;;;;;47.88;29.00;;;;;;;-3.58;100.00;100512.70;1703251;82;21041;-85
2022/01/14 02:28:51;;;;;;;45.88;28.35;;;;;;;-3.54;100.00;100504.57;1721868;82;21076;-86
2022/01/14 02:31:18;;;;;;;47.53;27.65;;;;;;;-3.54;100.00;100504.13;1708864;82;21842;-87
2022/01/14 02:33:45;;;;;;;45.88;28.85;;;;;;;-3.52;100.00;100511.31;1702402;83;21542;-87
2022/01/14 02:36:13;;;;;;;48.45;27.42;;;;;;;-3.51;100.00;100490.49;1694778;83;21061;-87
2022/01/14 02:38:40;;;;;;;44.23;27.27;;;;;;;-3.52;100.00;100480.76;1725406;81;21623;-87
2022/01/14 02:41:08;;;;;;;44.42;28.30;;;;;;;-3.48;100.00;100470.08;1707530;82;21040;-87
2022/01/14 02:43:35;;;;;;;46.35;25.92;;;;;;;-3.47;100.00;100471.77;1707452;82;21145;-85
2022/01/14 02:46:05;;;;;;;44.58;25.70;;;;;;;-3.45;100.00;100462.81;1707200;82;21049;-86
2022/01/14 02:48:32;;;;;;;45.20;27.70;;;;;;;-3.43;100.00;100458.53;1707051;82;21041;-86
2022/01/14 02:51:09;;;;;;;42.83;26.57;;;;;;;-3.41;100.00;100453.81;1704351;82;21013;-87
2022/01/14 02:56:10;;;;;;;44.27;27.15;;;;;;;-3.36;100.00;100428.26;1723697;83;21839;-87
2022/01/14 02:58:42;;;;;;;48.85;28.17;;;;;;;-3.33;100.00;100428.20;1721364;82;20999;-85
2022/01/14 03:01:17;;;;;;;43.08;26.65;;;;;;;-3.30;100.00;100426.03;1717608;82;21090;-86
2022/01/14 03:03:45;;;;;;;44.93;26.77;;;;;;;-3.29;100.00;100410.70;1691464;82;21089;-86
2022/01/14 03:06:14;;;;;;;47.30;26.73;;;;;;;-3.26;100.00;100411.92;1718144;82;21141;-86
2022/01/14 03:08:41;;;;;;;42.78;25.65;;;;;;;-3.24;100.00;100412.70;1718000;82;21206;-85
2022/01/14 03:11:21;;;;;;;41.20;26.80;;;;;;;-3.21;100.00;100408.84;1718101;82;21061;-85
2022/01/14 03:13:49;;;;;;;48.20;29.12;;;;;;;-3.18;100.00;100404.96;1714636;83;21039;-86
2022/01/14 03:16:20;;;;;;;51.90;30.60;;;;;;;-3.15;100.00;100405.74;1718106;82;21031;-85
2022/01/14 03:18:50;;;;;;;;;;;;;;;-3.13;100.00;100407.83;1694023;82;21035;-85
2022/01/14 03:21:25;;;;;;;49.05;28.20;;;;;;;-3.10;100.00;100402.68;1709703;82;21110;-86
2022/01/14 03:23:52;;;;;;;54.13;29.52;;;;;;;-3.06;100.00;100403.00;1717789;82;21070;-86
2022/01/14 03:26:21;;;;;;;48.25;27.50;;;;;;;-3.03;100.00;100394.03;1718145;82;21106;-86
2022/01/14 03:28:49;;;;;;;46.53;26.73;;;;;;;-3.00;100.00;100385.02;1718430;82;21138;-87
2022/01/14 03:31:17;;;;;;;47.90;27.42;;;;;;;-2.98;100.00;100382.46;1718846;82;21075;-87
2022/01/14 03:33:45;;;;;;;46.95;27.75;;;;;;;-2.95;100.00;100374.73;1718392;82;21818;-86
2022/01/14 03:36:13;;;;;;;48.28;28.07;;;;;;;-2.93;100.00;100380.63;1718548;82;21642;-87
2022/01/14 03:38:40;;;;;;;52.03;29.75;;;;;;;-2.91;100.00;100370.80;1718486;83;21513;-86
2022/01/14 03:41:07;;;;;;;45.73;27.40;;;;;;;-2.88;100.00;100361.83;1718572;82;21615;-86
2022/01/14 03:43:40;;;;;;;47.90;27.37;;;;;;;-2.84;100.00;100351.56;1718500;82;21039;-88
2022/01/14 03:46:07;;;;;;;43.83;26.52;;;;;;;-2.81;100.00;100345.95;1692005;83;21143;-87
2022/01/14 03:48:37;;;;;;;44.30;26.05;;;;;;;-2.79;100.00;100345.46;1702729;82;21547;-87
2022/01/14 03:51:04;;;;;;;42.10;25.82;;;;;;;-2.76;100.00;100334.34;1700954;82;21086;-86
2022/01/14 03:53:33;;;;;;;43.98;24.85;;;;;;;-2.73;100.00;100333.87;1700865;82;21051;-86
2022/01/14 03:56:01;;;;;;;47.88;24.45;;;;;;;-2.69;100.00;100319.33;1716399;82;21036;-88
2022/01/14 03:58:30;;;;;;;41.98;24.18;;;;;;;-2.66;100.00;100310.31;1744767;80;22212;-86
2022/01/14 04:00:58;;;;;;;40.17;25.23;;;;;;;-2.63;100.00;100303.02;1748932;81;21089;-87
2022/01/14 04:03:25;;;;;;;40.15;25.30;;;;;;;-2.60;100.00;100300.41;1732774;82;21585;-88
2022/01/14 04:05:56;;;;;;;44.77;25.77;;;;;;;-2.58;100.00;100280.36;1745319;80;21614;-89
2022/01/14 04:08:27;;;;;;;41.98;24.63;;;;;;;-2.55;100.00;100270.09;1728171;82;21077;-87
2022/01/14 04:10:56;;;;;;;40.67;25.20;;;;;;;-2.50;100.00;100265.30;1734208;82;21158;-86
2022/01/14 04:13:37;;;;;;;45.67;26.82;;;;;;;-2.49;100.00;100258.05;1702076;82;21112;-86
2022/01/14 04:15:52;;;;;;;43.28;26.20;;;;;;;-2.46;100.00;100252.42;1686469;83;21056;-87
2022/01/14 04:18:21;;;;;;;43.83;26.15;;;;;;;-2.44;100.00;100247.27;1701399;83;21017;-87
2022/01/14 04:20:50;;;;;;;45.70;25.92;;;;;;;-2.41;100.00;100247.20;1685384;83;21184;-87
2022/01/14 04:23:22;;;;;;;41.53;25.27;;;;;;;-2.39;100.00;100250.56;1686132;83;21562;-86
2022/01/14 04:25:53;;;;;;;44.48;26.87;;;;;;;-2.37;100.00;100250.09;1681901;84;21069;-87
2022/01/14 04:28:22;;;;;;;;;;;;;;;-2.38;100.00;100253.05;1685421;83;21137;-84
2022/01/14 04:30:56;;;;;;;53.15;25.88;;;;;;;-2.38;100.00;100254.33;1754186;80;20438;-80
2022/01/14 04:33:20;;;;;;;50.67;26.07;;;;;;;-2.23;100.00;100255.64;1745201;80;20997;-84
2022/01/14 04:35:47;;;;;;;42.58;25.95;;;;;;;-1.85;100.00;100248.19;1696491;80;21380;-85
2022/01/14 04:38:14;;;;;;;45.08;26.82;;;;;;;-1.66;100.00;100247.20;1722162;82;21619;-84
2022/01/14 04:40:42;;;;;;;51.15;27.75;;;;;;;-1.71;100.00;100246.06;1717658;82;21112;-87
2022/01/14 04:43:13;;;;;;;49.83;27.60;;;;;;;-1.75;100.00;100231.73;1710659;82;21033;-88
2022/01/14 04:45:43;;;;;;;65.00;29.23;;;;;;;-1.77;100.00;100241.14;1696897;83;21002;-88
2022/01/14 04:48:11;;;;;;;60.38;30.68;;;;;;;-1.79;100.00;100239.07;1712925;83;21095;-88
2022/01/14 04:50:39;;;;;;;55.85;30.88;;;;;;;-1.64;100.00;100228.84;1715613;82;20994;-88
2022/01/14 04:53:08;;;;;;;54.33;29.55;;;;;;;-1.49;100.00;100230.10;1716043;83;21049;-85
2022/01/14 04:55:36;;;;;;;53.65;30.97;;;;;;;-1.56;100.00;100229.91;1712706;83;21073;-86
2022/01/14 04:58:04;;;;;;;52.30;30.52;;;;;;;-1.69;100.00;100225.16;1744383;81;21092;-86
2022/01/14 05:00:32;;;;;;;50.80;29.40;;;;;;;-1.77;100.00;100216.89;1746655;80;21838;-86
2022/01/14 05:02:59;;;;;;;46.02;26.05;;;;;;;-1.83;100.00;100208.97;1728528;82;21058;-87
2022/01/14 05:05:30;;;;;;;49.83;27.00;;;;;;;-1.84;100.00;100211.58;1753628;81;21061;-87
2022/01/14 05:07:57;;;;;;;49.38;28.60;;;;;;;-1.86;100.00;100210.78;1745223;81;21042;-87
2022/01/14 05:12:57;;;;;;;50.85;28.90;;;;;;;-1.85;100.00;100204.80;1689167;83;21874;-85
2022/01/14 05:15:24;;;;;;;47.48;26.20;;;;;;;-1.86;100.00;100198.02;1700071;81;21400;-84
2022/01/14 05:17:51;;;;;;;49.58;27.82;;;;;;;-1.83;100.00;100199.22;1720811;82;21060;-85
2022/01/14 05:20:19;;;;;;;49.95;27.67;;;;;;;-1.83;100.00;100199.22;1688462;83;21568;-86
2022/01/14 05:22:47;;;;;;;46.30;26.62;;;;;;;-1.83;100.00;100194.11;1708999;83;21060;-85
2022/01/14 05:25:16;;;;;;;49.80;28.20;;;;;;;-1.82;100.00;100190.68;1709070;81;21163;-86
2022/01/14 05:27:44;;;;;;;47.25;28.57;;;;;;;-1.82;100.00;100188.12;1724053;83;21013;-89
2022/01/14 05:30:13;;;;;;;47.27;28.90;;;;;;;-1.79;100.00;100186.73;1716991;81;22099;-87
2022/01/14 05:32:48;;;;;;;49.13;27.98;;;;;;;-1.77;100.00;100187.53;1714778;83;21025;-85
2022/01/14 05:35:25;;;;;;;51.15;28.83;;;;;;;-1.75;100.00;100174.28;1723319;83;21002;-84
2022/01/14 05:37:53;;;;;;;53.92;27.80;;;;;;;-1.72;100.00;100167.80;1720783;82;21088;-87
2022/01/14 05:40:24;;;;;;;53.20;32.28;;;;;;;-1.69;100.00;100168.98;1723494;81;21014;-85
2022/01/14 05:42:51;;;;;;;51.88;28.25;;;;;;;-1.66;100.00;100159.97;1721267;81;21129;-88
2022/01/14 05:45:18;;;;;;;53.78;31.30;;;;;;;-1.65;100.00;100155.67;1723533;83;21081;-87
2022/01/14 05:47:46;;;;;;;51.95;31.00;;;;;;;-1.63;100.00;100149.63;1773583;80;21002;-87
2022/01/14 05:50:21;;;;;;;48.58;28.98;;;;;;;-1.61;100.00;100155.53;1773889;80;21123;-87
2022/01/14 05:52:48;;;;;;;50.75;30.27;;;;;;;-1.56;100.00;100150.73;1770690;80;20935;-85
2022/01/14 05:55:21;;;;;;;54.18;31.17;;;;;;;-1.54;100.00;100151.08;1773860;80;21057;-87
2022/01/14 05:57:49;;;;;;;50.95;30.48;;;;;;;-1.51;100.00;100150.95;1773776;80;21029;-86
2022/01/14 06:00:19;;;;;;;53.42;31.70;;;;;;;-1.49;100.00;100144.09;1776630;80;21005;-87
2022/01/14 06:02:48;;;;;;;56.35;30.48;;;;;;;-1.46;100.00;100140.17;1779418;80;21168;-88
2022/01/14 06:05:17;;;;;;;50.92;30.08;;;;;;;-1.44;100.00;100140.93;1776390;80;21053;-86
2022/01/14 06:07:44;;;;;;;51.58;27.45;;;;;;;-1.42;100.00;100137.06;1779000;80;21112;-86
2022/01/14 06:10:13;;;;;;;44.33;27.13;;;;;;;-1.39;100.00;100136.13;1779193;80;22333;-86
2022/01/14 06:12:40;;;;;;;49.13;30.25;;;;;;;-1.36;100.00;100135.58;1750129;80;21558;-86
2022/01/14 06:15:08;;;;;;;52.45;31.25;;;;;;;-1.35;100.00;100120.65;1779143;80;22044;-87
2022/01/14 06:17:38;;;;;;;51.50;30.68;;;;;;;-1.31;100.00;100113.72;1750311;80;21037;-87
2022/01/14 06:20:06;;;;;;;48.15;31.07;;;;;;;-1.30;100.00;100099.60;1779344;80;21041;-86
2022/01/14 06:22:36;;;;;;;48.42;29.42;;;;;;;-1.27;100.00;100093.12;1779230;80;20965;-86
2022/01/14 06:25:05;;;;;;;46.02;29.50;;;;;;;-1.25;100.00;100091.78;1750779;80;21017;-85
2022/01/14 06:27:35;;;;;;;49.30;31.07;;;;;;;-1.21;100.00;100088.25;1779383;80;21116;-88
2022/01/14 06:30:05;;;;;;;54.38;29.80;;;;;;;-1.18;100.00;100086.03;1750889;80;21076;-86
2022/01/14 06:32:41;;;;;;;50.95;32.00;;;;;;;-1.16;100.00;100075.31;1750345;80;21044;-87
2022/01/14 06:35:05;;;;;;;50.43;29.07;;;;;;;-1.13;100.00;100077.32;1778581;80;21029;-86
2022/01/14 06:37:33;;;;;;;48.90;28.38;;;;;;;-1.11;100.00;100055.53;1778948;80;21005;-84
2022/01/14 06:40:01;;;;;;;46.25;28.92;;;;;;;-1.07;100.00;100054.52;1778982;80;21806;-85
2022/01/14 06:42:28;;;;;;;54.93;30.95;;;;;;;-1.05;100.00;100042.53;1778944;80;21495;-86
2022/01/14 06:44:55;;;;;;;47.67;29.05;;;;;;;-1.02;100.00;100036.47;1779186;80;21002;-84
2022/01/14 06:47:23;;;;;;;46.33;29.12;;;;;;;-0.99;100.00;100017.20;1744835;80;21588;-85
2022/01/14 06:49:50;;;;;;;48.23;30.10;;;;;;;-0.97;100.00;100013.69;1717290;82;21517;-85
2022/01/14 06:52:18;;;;;;;40.38;27.80;;;;;;;-0.93;100.00;100013.59;1748574;81;21216;-86
2022/01/14 06:54:45;;;;;;;40.15;25.52;;;;;;;-0.91;100.00;100012.64;1749255;82;21639;-85
2022/01/14 06:57:13;;;;;;;40.88;26.60;;;;;;;-0.86;100.00;100003.52;1747996;80;22503;-86
2022/01/14 06:59:40;;;;;;;41.65;25.80;;;;;;;-0.87;100.00;99990.34;1754425;80;21555;-84
2022/01/14 07:02:10;;;;;;;41.37;26.68;;;;;;;-0.84;100.00;99988.97;1666271;83;21020;-85
2022/01/14 07:04:38;;;;;;;;;;;;;;;-0.82;100.00;99971.83;1706652;83;21229;-86
2022/01/14 07:07:05;;;;;;;36.38;23.87;;;;;;;-0.79;100.00;99966.61;1711579;83;20209;-86
2022/01/14 07:09:34;;;;;;;41.02;26.50;;;;;;;-0.76;100.00;99956.24;1731348;80;22115;-86
2022/01/14 07:12:04;;;;;;;39.15;25.60;;;;;;;-0.73;100.00;99954.86;1746891;81;21046;-84
2022/01/14 07:14:32;;;;;;;38.42;25.80;;;;;;;-0.70;100.00;99953.90;1746291;81;21108;-85
2022/01/14 07:17:01;;;;;;;37.90;25.43;;;;;;;-0.66;100.00;99952.44;1746636;81;21813;-86
2022/01/14 07:19:29;;;;;;;42.17;26.05;;;;;;;-0.62;100.00;99946.76;1746163;81;21524;-86
2022/01/14 07:21:56;;;;;;;38.15;24.52;;;;;;;-0.58;100.00;99946.19;1746544;81;21046;-85
2022/01/14 07:24:23;;;;;;;37.13;24.30;;;;;;;-0.55;100.00;99946.08;1746215;81;21555;-86
2022/01/14 07:26:52;;;;;;;36.55;24.37;;;;;;;-0.54;100.00;99943.91;1746409;81;20998;-87
2022/01/14 07:29:19;;;;;;;35.35;23.30;;;;;;;-0.52;100.00;99948.53;1751515;81;22048;-86
2022/01/14 07:31:46;;;;;;;39.50;23.85;;;;;;;-0.50;100.00;99941.61;1747913;80;21053;-86
2022/01/14 07:34:15;;;;;;;34.75;22.62;;;;;;;-0.46;100.00;99933.36;1758292;80;21010;-86
2022/01/14 07:36:42;;;;;;;32.88;21.35;;;;;;;-0.42;100.00;99931.90;1732862;81;21614;-86
2022/01/14 07:39:09;;;;;;;30.00;20.20;;;;;;;-0.41;100.00;99939.14;1745274;81;21026;-88
2022/01/14 07:41:37;;;;;;;31.25;21.20;;;;;;;-0.40;100.00;99932.67;1762802;80;22018;-87
2022/01/14 07:44:05;;;;;;;30.85;19.77;;;;;;;-0.38;100.00;99935.16;1746356;80;21520;-88
2022/01/14 07:46:31;;;;;;;31.85;20.37;;;;;;;-0.37;100.00;99930.00;1722876;81;21511;-88
2022/01/14 07:48:59;;;;;;;31.15;21.02;;;;;;;-0.34;100.00;99915.79;1702275;82;21042;-88
2022/01/14 07:51:26;;;;;;;28.85;19.57;;;;;;;-0.30;100.00;99899.86;1741626;81;21633;-89
2022/01/14 07:53:56;;;;;;;35.58;21.48;;;;;;;-0.26;100.00;99886.06;1741506;81;21581;-89
2022/01/14 07:56:23;;;;;;;32.98;21.50;;;;;;;-0.22;100.00;99876.53;1703433;82;21053;-90
2022/01/14 07:58:50;;;;;;;29.25;20.05;;;;;;;-0.19;100.00;99872.11;1702421;82;21551;-88
2022/01/14 08:01:18;;;;;;;28.65;19.57;;;;;;;-0.15;100.00;99866.41;1746741;81;21824;-88
2022/01/14 08:03:45;;;;;;;33.45;19.92;;;;;;;-0.13;100.00;99864.63;1749627;82;21513;-88
2022/01/14 08:06:13;;;;;;;25.92;19.37;;;;;;;-0.10;100.00;99868.31;1748846;81;21851;-88
2022/01/14 08:08:40;;;;;;;28.32;19.52;;;;;;;-0.08;100.00;99864.43;1745729;81;21084;-89
2022/01/14 08:11:07;;;;;;;28.02;19.15;;;;;;;-0.07;100.00;99847.72;1752921;81;21630;-89
2022/01/14 08:13:35;;;;;;;26.00;18.00;;;;;;;-0.05;100.00;99839.53;1740924;81;21080;-88
2022/01/14 08:16:03;;;;;;;28.38;18.10;;;;;;;-0.01;100.00;99838.48;1702722;81;21935;-89
2022/01/14 08:18:30;;;;;;;26.75;18.23;;;;;;;0.02;100.00;99827.27;1752240;81;21125;-88
2022/01/14 08:20:59;;;;;;;28.67;19.30;;;;;;;0.06;100.00;99821.14;1751659;81;21049;-89
2022/01/14 08:23:26;;;;;;;23.52;17.42;;;;;;;0.08;100.00;99824.44;1751804;81;21112;-90
2022/01/14 08:25:55;;;;;;;25.30;18.25;;;;;;;0.11;100.00;99818.37;1721942;81;21096;-90
2022/01/14 08:28:25;;;;;;;24.60;18.15;;;;;;;0.14;100.00;99807.55;1711191;81;21096;-90
2022/01/14 08:30:53;;;;;;;25.45;17.30;;;;;;;0.18;100.00;99795.44;1697382;84;21238;-90
2022/01/14 08:33:21;;;;;;;24.35;16.95;;;;;;;0.23;100.00;99795.23;1728009;83;21108;-91
2022/01/14 08:35:48;;;;;;;24.57;17.25;;;;;;;0.26;100.00;99793.80;1715238;83;21559;-91
2022/01/14 08:38:16;;;;;;;26.25;17.85;;;;;;;0.30;100.00;99779.50;1715143;83;21092;-92
2022/01/14 08:40:43;;;;;;;23.67;15.53;;;;;;;0.34;100.00;99775.53;1728229;83;21123;-92
2022/01/14 08:43:11;;;;;;;22.32;16.27;;;;;;;0.37;100.00;99771.09;1727957;83;22069;-91
2022/01/14 08:45:40;;;;;;;24.70;16.37;;;;;;;0.39;100.00;99755.21;1714871;83;21047;-91
2022/01/14 08:48:08;;;;;;;21.82;16.32;;;;;;;0.42;100.00;99756.33;1714780;83;21036;-91
2022/01/14 08:50:38;;;;;;;22.42;15.95;;;;;;;0.44;100.00;99746.03;1714977;83;21535;-91
2022/01/14 08:53:09;;;;;;;27.50;16.12;;;;;;;0.44;100.00;99732.77;1722713;83;21076;-92
2022/01/14 08:55:37;;;;;;;21.27;15.13;;;;;;;0.46;100.00;99728.41;1728175;83;21152;-91
2022/01/14 08:58:04;;;;;;;22.52;15.10;;;;;;;0.48;100.00;99728.32;1727902;83;21072;-90
2022/01/14 09:00:32;;;;;;;23.75;16.37;;;;;;;0.50;100.00;99718.84;1723358;83;21061;-89
2022/01/14 09:03:01;;;;;;;25.02;16.50;;;;;;;0.50;100.00;99713.72;1690198;84;21072;-91
2022/01/14 09:05:31;;;;;;;28.15;17.65;;;;;;;0.50;100.00;99708.59;1691561;83;21104;-89
2022/01/14 09:08:00;;;;;;;25.77;16.70;;;;;;;0.51;100.00;99703.84;1709345;83;21956;-90
2022/01/14 09:10:27;;;;;;;23.38;17.02;;;;;;;0.50;100.00;99702.19;1709694;83;21520;-90
2022/01/14 09:12:54;;;;;;;24.18;17.32;;;;;;;0.53;100.00;99698.17;1709456;83;21112;-92
2022/01/14 09:15:21;;;;;;;26.35;17.62;;;;;;;0.56;100.00;99681.86;1690593;84;21026;-92
2022/01/14 09:17:49;;;;;;;23.75;16.10;;;;;;;0.57;100.00;99674.08;1685185;85;21069;-91
2022/01/14 09:20:17;;;;;;;23.30;15.78;;;;;;;0.60;100.00;99659.83;1709341;83;21823;-91
2022/01/14 09:22:51;;;;;;;20.85;15.48;;;;;;;0.65;100.00;99655.76;1703410;83;21081;-88
2022/01/14 09:25:21;;;;;;;22.05;15.85;;;;;;;0.70;100.00;99645.28;1695041;82;21038;-89
2022/01/14 09:27:51;;;;;;;22.25;15.72;;;;;;;0.76;100.00;99634.75;1675352;83;21083;-90
2022/01/14 09:30:20;;;;;;;22.15;15.45;;;;;;;0.83;100.00;99628.84;1667293;84;21100;-91
2022/01/14 09:32:53;;;;;;;21.93;14.20;;;;;;;0.87;100.00;99611.95;1722984;81;21167;-93
2022/01/14 09:35:20;;;;;;;20.55;14.00;;;;;;;0.89;100.00;99608.87;1690496;83;21582;-90
2022/01/14 09:37:49;;;;;;;18.12;12.70;;;;;;;0.89;100.00;99607.58;1694225;84;21559;-89
2022/01/14 09:40:18;;;;;;;20.57;14.28;;;;;;;0.89;100.00;99591.36;1700400;82;21049;-88
2022/01/14 09:43:02;;;;;;;18.23;13.35;;;;;;;0.88;100.00;99587.16;1663346;84;21662;-87
2022/01/14 09:45:31;;;;;;;18.07;13.40;;;;;;;0.89;100.00;99581.11;1685683;83;21127;-89
2022/01/14 09:48:01;;;;;;;19.82;13.62;;;;;;;0.90;100.00;99570.80;1713765;82;21007;-90
2022/01/14 09:50:28;;;;;;;17.62;12.53;;;;;;;0.90;100.00;99564.82;1676774;83;21105;-91
2022/01/14 09:52:55;;;;;;;17.30;12.40;;;;;;;0.91;100.00;99564.77;1694043;81;21554;-91
2022/01/14 09:55:26;;;;;;;17.52;12.33;;;;;;;0.91;100.00;99554.95;1659700;85;21046;-91
2022/01/14 09:57:54;;;;;;;18.57;13.00;;;;;;;0.91;100.00;99544.25;1713977;83;21520;-91
2022/01/14 10:00:22;;;;;;;16.77;12.63;;;;;;;0.91;100.00;99544.25;1694069;80;21084;-92
2022/01/14 10:02:51;;;;;;;19.20;12.20;;;;;;;0.91;100.00;99545.54;1698007;83;21069;-91
2022/01/14 10:05:44;;;;;;;17.67;13.13;;;;;;;0.91;100.00;99535.28;1740924;81;21101;-90
2022/01/14 10:08:23;;;;;;;17.02;12.68;;;;;;;0.90;100.00;99527.66;1686695;84;20994;-89
2022/01/14 10:11:00;;;;;;;16.50;11.50;;;;;;;0.90;100.00;99520.81;1717511;83;21142;-90
2022/01/14 10:13:34;;;;;;;16.95;12.60;;;;;;;0.90;100.00;99517.40;1742953;81;21084;-88
2022/01/14 10:16:10;;;;;;;18.67;12.93;;;;;;;0.90;100.00;99520.81;1712692;83;21074;-89
2022/01/14 10:18:39;;;;;;;17.12;13.48;;;;;;;0.90;100.00;99518.24;1694614;83;21113;-88
2022/01/14 10:21:11;;;;;;;18.17;12.18;;;;;;;0.91;100.00;99501.96;1724580;81;21107;-89
2022/01/14 10:23:45;;;;;;;16.50;12.03;;;;;;;0.90;100.00;99490.05;1721713;81;21108;-88
2022/01/14 10:26:16;;;;;;;18.80;13.78;;;;;;;0.90;100.00;99486.20;1703424;82;21081;-88
2022/01/14 10:28:47;;;;;;;19.52;13.95;;;;;;;0.89;100.00;99478.13;1719933;81;21856;-90
2022/01/14 10:31:15;;;;;;;17.32;13.40;;;;;;;0.88;100.00;99475.20;1714292;82;21084;-88
2022/01/14 10:33:43;;;;;;;20.55;12.10;;;;;;;0.86;100.00;99461.63;1717998;82;21658;-91
2022/01/14 10:36:21;;;;;;;15.85;10.95;;;;;;;0.92;100.00;99456.16;1720929;83;21187;-93
2022/01/14 10:38:50;;;;;;;16.67;12.18;;;;;;;0.98;100.00;99447.80;1717788;83;21440;-90
2022/01/14 10:41:19;;;;;;;17.07;12.05;;;;;;;1.00;100.00;99445.98;1759109;80;21074;-92
2022/01/14 10:43:48;;;;;;;16.62;11.95;;;;;;;0.98;100.00;99435.78;1709732;83;21061;-91
2022/01/14 10:46:15;;;;;;;20.48;12.53;;;;;;;0.97;100.00;99425.62;1739406;81;21496;-93
2022/01/14 10:48:46;;;;;;;18.70;13.95;;;;;;;0.96;100.00;99418.41;1696554;82;21196;-90
2022/01/14 10:51:17;;;;;;;19.42;13.75;;;;;;;0.93;100.00;99416.80;1718050;83;21077;-90
2022/01/14 10:53:53;;;;;;;20.30;14.85;;;;;;;0.88;100.00;99405.98;1714614;81;21067;-89
2022/01/14 10:56:25;;;;;;;26.42;16.77;;;;;;;0.84;100.00;99399.36;1727317;82;21471;-89
2022/01/14 10:59:00;;;;;;;19.05;12.73;;;;;;;0.83;100.00;99381.51;1721292;83;21657;-91
2022/01/14 11:01:26;;;;;;;19.77;12.85;;;;;;;0.82;100.00;99373.01;1694574;83;21122;-89
2022/01/14 11:04:01;;;;;;;18.20;12.37;;;;;;;0.82;100.00;99369.16;1715393;81;21013;-89
2022/01/14 11:06:38;;;;;;;12.15;10.08;;;;;;;0.82;100.00;99363.20;1726148;82;21135;-88
2022/01/14 11:09:11;;;;;;;12.20;9.28;;;;;;;0.83;100.00;99366.13;1713224;81;21092;-89
2022/01/14 11:11:44;;;;;;;15.15;10.15;;;;;;;0.84;100.00;99362.20;1716141;81;21025;-90
2022/01/14 11:14:13;;;;;;;16.32;10.55;;;;;;;0.84;100.00;99363.95;1711341;82;21891;-90
2022/01/14 11:16:42;;;;;;;20.97;10.15;;;;;;;0.83;100.00;99359.28;1734406;80;21092;-90
2022/01/14 11:19:10;;;;;;;15.08;10.10;;;;;;;0.83;100.00;99355.44;1743431;81;21033;-88
2022/01/14 11:24:33;;;;;;;16.32;10.48;;;;;;;0.83;100.00;99345.63;1720738;82;21080;-89
2022/01/14 11:27:11;;;;;;;14.13;9.70;;;;;;;0.81;100.00;99336.75;1729654;82;21303;-89
2022/01/14 11:29:47;;;;;;;14.50;10.05;;;;;;;0.81;100.00;99332.06;1729446;82;21022;-91
2022/01/14 11:32:16;;;;;;;14.10;9.15;;;;;;;0.80;100.00;99322.75;1727067;82;21530;-90
2022/01/14 11:34:46;;;;;;;14.73;10.50;;;;;;;0.80;100.00;99313.31;1729449;82;21025;-90
2022/01/14 11:37:31;;;;;;;17.05;10.05;;;;;;;0.81;100.00;99306.44;1718380;82;21904;-90
2022/01/14 11:40:06;;;;;;;20.70;12.73;;;;;;;0.80;100.00;99287.69;1740717;82;21093;-91
2022/01/14 11:42:45;;;;;;;19.35;13.08;;;;;;;0.85;100.00;99269.02;1715298;80;21255;-90
2022/01/14 11:45:16;;;;;;;20.82;12.85;;;;;;;0.93;100.00;99257.88;1696875;82;21133;-89
2022/01/14 11:47:48;;;;;;;19.40;12.25;;;;;;;0.93;100.00;99244.25;1722717;82;21081;-89